Iron Brooke — V7KL3 — position and weather

sailwx.info

Track history (hours):
 
Tides and Currents Weather Stations Pressure Air Temp Water Temp Dewpoint Dewpoint Depression Visibility Wind Speed Wind Dir Waves Ship Positions

Iron Brooke

Last reported at 2014-Sep-16 14:32 UTC. Time now 2014-Sep-16 15:33 UTC.
Position N 24°37' E 119°11'.

Length 229 m; draft 14.8 m.

Type: Cargo ship. MMSI: 538002640.

Date/timePositionNaut miles runAvg speedWind from/ knotsBaromVisibWave heightAir tempDewpointWater temp
2014-Sep-16 14:32N 24°37' E 119°11'  
2014-Sep-09 08:04N 01°15' E 104°07'510.1
2014-Sep-09 07:34N 01°15' E 104°02'3 3.3
2014-Sep-09 06:33N 01°17' E 103°60'0 0.1
2014-Sep-09 05:27N 01°17' E 103°60'0 0.0
2014-Sep-09 01:27N 01°17' E 103°59'0 0.0
2014-Sep-09 00:32N 01°17' E 103°59'0 0.2
2014-Sep-08 23:29N 01°17' E 103°60'0 0.1
2014-Sep-08 22:29N 01°17' E 103°60'0 0.0
2014-Sep-08 21:32N 01°17' E 103°60'0 0.0
2014-Sep-08 20:14N 01°17' E 103°60'0 0.0
2014-Sep-08 19:20N 01°17' E 103°60'0 0.1
2014-Sep-08 18:29N 01°17' E 103°60'0 0.1
2014-Sep-08 17:32N 01°17' E 103°60'0 0.1
2014-Sep-08 16:14N 01°17' E 103°60'1 0.9
2014-Sep-08 15:34N 01°17' E 103°59'4 3.9
2014-Sep-08 14:33N 01°14' E 103°57'8 8.5
2014-Sep-08 13:33N 01°10' E 103°49'  
Track history (hours):
 
Tides and Currents Weather Stations Pressure Air Temp Water Temp Dewpoint Dewpoint Depression Visibility Wind Speed Wind Dir Waves Ship Positions

Iron Brooke

Last reported at 2014-Sep-16 14:32 UTC. Time now 2014-Sep-16 15:33 UTC.
Position N 24°37' E 119°11'.

Length 229 m; draft 14.8 m.

Type: Cargo ship. MMSI: 538002640.

Date/timePositionNaut miles runAvg speedWind from/ knotsBaromVisibWave heightAir tempDewpointWater temp
2014-Sep-16 14:32N 24°37' E 119°11'  
2014-Sep-09 08:04N 01°15' E 104°07'510.1
2014-Sep-09 07:34N 01°15' E 104°02'3 3.3
2014-Sep-09 06:33N 01°17' E 103°60'0 0.1
2014-Sep-09 05:27N 01°17' E 103°60'0 0.0
2014-Sep-09 01:27N 01°17' E 103°59'0 0.0
2014-Sep-09 00:32N 01°17' E 103°59'0 0.2
2014-Sep-08 23:29N 01°17' E 103°60'0 0.1
2014-Sep-08 22:29N 01°17' E 103°60'0 0.0
2014-Sep-08 21:32N 01°17' E 103°60'0 0.0
2014-Sep-08 20:14N 01°17' E 103°60'0 0.0
2014-Sep-08 19:20N 01°17' E 103°60'0 0.1
2014-Sep-08 18:29N 01°17' E 103°60'0 0.1
2014-Sep-08 17:32N 01°17' E 103°60'0 0.1
2014-Sep-08 16:14N 01°17' E 103°60'1 0.9
2014-Sep-08 15:34N 01°17' E 103°59'4 3.9
2014-Sep-08 14:33N 01°14' E 103°57'8 8.5
2014-Sep-08 13:33N 01°10' E 103°49'  

Dump ship's entire track history